Skip Navigation Links Skip Navigation Links

Current Weather

Salinas Muni, Salinas, Calif.

For information only: do not use for flight planning or navigation.
Latest weather
Observation time Thursday, January 27, 2022 8:53 PM PST
Local time Thursday, January 27, 2022 9:38 PM PST
Flight conditions Visual Meteorological Conditions
Winds
Wind speed calm
Visibility 9 mi.
Sky condition
Ceiling unlimited
Sky clear
Temperature 48°F
Dewpoint 43°F
Altimeter 30.23 in.Hg
Derived measurements
Relative humidity 83%
Wind chill 48°F
Density altitude -864 ft.
Sea-level pressure 30.26 in.Hg
Remarks
Fully automated report.
Automated weather observing station with precipitation discriminator.
Lightning detection system not operating.
METAR KSNS 280453Z AUTO 00000KT 9SM CLR 09/06 A3023 RMK AO2 SLP246 T00890061 TSNO

Settings

Location code

InnerDrive.Weather 4.0.6770.0 Release CLR 4.0.30319.42000
Copyright ©2018 Inner Drive Technology. All rights reserved. Portions Copyright ©1986-2018 David Braverman.

Find weather

Site navigation


Skip Navigation Links

Place info

Page info

PayPal - The safer, easier way to pay online!

Return home.

Copyright ©2022 Inner Drive Technology. Purveyors of fine, hand-crafted computer software. Page printed 2022-01-28T05:38:43 UTC.